Time;durP1;ratioP1;P1;durP2;ratioP2;P2;SDS_P1;SDS_P2;PMS_P1;PMS_P2;Temp;Humidity;BMP_temperature;BMP_pressure;BME280_temperature;BME280_humidity;BME280_pressure;Samples;Min_cycle;Max_cycle;Signal;HPM_P1;HPM_P2
2024/01/07 00:01:09;;;;;;;39.28;25.55;;;;;;;;;;4984210;28;20046;-67
2024/01/07 00:03:36;;;;;;;39.83;26.25;;;;;;;;;;4976555;28;20444;-67
2024/01/07 00:06:04;;;;;;;40.53;25.95;;;;;;;;;;4976240;28;20042;-67
2024/01/07 00:08:32;;;;;;;38.63;25.65;;;;;;;;;;4976188;28;20046;-67
2024/01/07 00:10:59;;;;;;;42.25;26.48;;;;;;;;;;4977789;28;20049;-67
2024/01/07 00:13:27;;;;;;;42.17;25.85;;;;;;;;;;4966533;28;20141;-67
2024/01/07 00:15:56;;;;;;;41.10;26.25;;;;;;;;;;4984633;28;20117;-67
2024/01/07 00:18:24;;;;;;;42.85;27.45;;;;;;;;;;4975944;28;20122;-67
2024/01/07 00:20:52;;;;;;;39.83;26.27;;;;;;;;;;4976074;28;20047;-67
2024/01/07 00:23:20;;;;;;;42.20;27.23;;;;;;;;;;4982290;28;20133;-67
2024/01/07 00:25:48;;;;;;;46.47;27.88;;;;;;;;;;4986492;28;20035;-67
2024/01/07 00:28:16;;;;;;;45.67;28.27;;;;;;;;;;4975914;28;20125;-67
2024/01/07 00:30:43;;;;;;;41.72;26.95;;;;;;;;;;4958839;28;20058;-69
2024/01/07 00:33:12;;;;;;;41.88;26.60;;;;;;;;;;4976971;28;20046;-67
2024/01/07 00:35:39;;;;;;;40.00;26.02;;;;;;;;;;4967865;28;20101;-67
2024/01/07 00:38:07;;;;;;;37.65;24.85;;;;;;;;;;4961613;28;20444;-67
2024/01/07 00:40:34;;;;;;;39.63;25.65;;;;;;;;;;4969629;28;20497;-67
2024/01/07 00:43:02;;;;;;;43.17;25.33;;;;;;;;;;4966965;28;20055;-67
2024/01/07 00:45:29;;;;;;;37.40;25.42;;;;;;;;;;4976988;28;20374;-67
2024/01/07 00:47:57;;;;;;;34.90;23.92;;;;;;;;;;4985530;28;20516;-67
2024/01/07 00:50:25;;;;;;;37.58;24.38;;;;;;;;;;4966537;28;20046;-66
2024/01/07 00:52:53;;;;;;;39.40;25.08;;;;;;;;;;4986181;28;20184;-67
2024/01/07 00:55:22;;;;;;;37.03;24.42;;;;;;;;;;4963869;28;20063;-67
2024/01/07 00:57:50;;;;;;;37.33;23.92;;;;;;;;;;4965275;28;20090;-67
2024/01/07 01:00:18;;;;;;;39.13;24.42;;;;;;;;;;4974710;28;20538;-66
2024/01/07 01:02:46;;;;;;;38.33;24.23;;;;;;;;;;4973861;28;20134;-66
2024/01/07 01:05:14;;;;;;;38.67;23.80;;;;;;;;;;4967199;28;20043;-67
2024/01/07 01:07:41;;;;;;;36.40;24.02;;;;;;;;;;4980527;28;20400;-66
2024/01/07 01:10:09;;;;;;;36.83;24.17;;;;;;;;;;4950309;28;20051;-67
2024/01/07 01:12:36;;;;;;;37.20;24.15;;;;;;;;;;4957605;28;20184;-67
2024/01/07 01:15:04;;;;;;;36.72;24.23;;;;;;;;;;4962378;28;20117;-67
2024/01/07 01:17:32;;;;;;;39.47;23.92;;;;;;;;;;4985770;28;20058;-67
2024/01/07 01:19:59;;;;;;;39.25;25.98;;;;;;;;;;4964879;28;20046;-67
2024/01/07 01:22:27;;;;;;;42.13;26.90;;;;;;;;;;4958232;28;20480;-67
2024/01/07 01:24:55;;;;;;;40.33;26.00;;;;;;;;;;4964166;28;20428;-67
2024/01/07 01:27:23;;;;;;;40.13;25.27;;;;;;;;;;4963364;28;20138;-66
2024/01/07 01:29:51;;;;;;;43.90;26.45;;;;;;;;;;4957555;28;20053;-67
2024/01/07 01:32:18;;;;;;;44.08;27.30;;;;;;;;;;4957259;28;20054;-67
2024/01/07 01:34:46;;;;;;;41.00;27.40;;;;;;;;;;4957251;28;20051;-67
2024/01/07 01:37:13;;;;;;;42.80;26.00;;;;;;;;;;4957607;28;20121;-67
2024/01/07 01:39:41;;;;;;;43.13;27.42;;;;;;;;;;4971095;28;20048;-67
2024/01/07 01:42:09;;;;;;;41.83;26.48;;;;;;;;;;4966177;28;20113;-67
2024/01/07 01:44:37;;;;;;;43.75;26.80;;;;;;;;;;4968181;28;20074;-67
2024/01/07 01:47:06;;;;;;;44.67;26.45;;;;;;;;;;4968656;28;20042;-67
2024/01/07 01:49:35;;;;;;;37.78;25.33;;;;;;;;;;4964196;28;20129;-67
2024/01/07 01:52:03;;;;;;;38.83;25.00;;;;;;;;;;4964397;28;20137;-68
2024/01/07 01:54:31;;;;;;;38.60;25.30;;;;;;;;;;4963326;28;20079;-67
2024/01/07 01:56:59;;;;;;;39.33;24.27;;;;;;;;;;4973449;28;20382;-67
2024/01/07 01:59:26;;;;;;;36.85;24.42;;;;;;;;;;4974239;28;20046;-67
2024/01/07 02:01:55;;;;;;;38.85;24.02;;;;;;;;;;4974151;28;20046;-67
2024/01/07 02:04:22;;;;;;;37.65;24.83;;;;;;;;;;4959647;28;20207;-66
2024/01/07 02:06:50;;;;;;;40.90;25.38;;;;;;;;;;4963738;28;20047;-66
2024/01/07 02:09:18;;;;;;;36.72;25.63;;;;;;;;;;4962906;28;20050;-67
2024/01/07 02:12:00;;;;;;;42.10;27.55;;;;;;;;;;4963528;28;20492;-66
2024/01/07 02:14:28;;;;;;;44.80;26.67;;;;;;;;;;4956661;28;20093;-67
2024/01/07 02:16:56;;;;;;;43.90;27.55;;;;;;;;;;4956704;28;20051;-66
2024/01/07 02:19:23;;;;;;;42.38;25.75;;;;;;;;;;4956718;28;20501;-66
2024/01/07 02:21:51;;;;;;;40.40;25.73;;;;;;;;;;4960880;28;20571;-67
2024/01/07 02:24:19;;;;;;;38.63;24.23;;;;;;;;;;4963550;28;20051;-67
2024/01/07 02:26:47;;;;;;;36.97;24.90;;;;;;;;;;4971968;28;20050;-67
2024/01/07 02:29:14;;;;;;;37.88;24.45;;;;;;;;;;4999940;28;20043;-67
2024/01/07 02:31:42;;;;;;;37.58;24.90;;;;;;;;;;4958304;28;20129;-67
2024/01/07 02:34:10;;;;;;;39.38;26.30;;;;;;;;;;4965270;28;20093;-66
2024/01/07 02:36:38;;;;;;;40.83;25.02;;;;;;;;;;4958034;28;20097;-66
2024/01/07 02:39:06;;;;;;;37.80;24.58;;;;;;;;;;4964247;28;20105;-67
2024/01/07 02:41:33;;;;;;;37.83;25.33;;;;;;;;;;4981381;28;20085;-66
2024/01/07 02:44:01;;;;;;;38.65;24.58;;;;;;;;;;4962138;28;20055;-67
2024/01/07 02:46:28;;;;;;;40.53;24.63;;;;;;;;;;4973710;28;20053;-67
2024/01/07 02:48:56;;;;;;;37.95;25.40;;;;;;;;;;4956365;28;20045;-67
2024/01/07 02:51:24;;;;;;;34.50;23.05;;;;;;;;;;4962018;28;20039;-66
2024/01/07 02:53:52;;;;;;;39.25;22.73;;;;;;;;;;4964623;28;20047;-67
2024/01/07 02:56:19;;;;;;;32.10;21.75;;;;;;;;;;4956273;28;20054;-67
2024/01/07 02:58:47;;;;;;;30.55;21.27;;;;;;;;;;4974279;28;20034;-67
2024/01/07 03:01:14;;;;;;;32.60;20.50;;;;;;;;;;4966871;28;20568;-67
2024/01/07 03:03:42;;;;;;;28.67;20.00;;;;;;;;;;4959125;28;20406;-67
2024/01/07 03:06:09;;;;;;;33.42;20.25;;;;;;;;;;4981848;28;20042;-66
2024/01/07 03:08:37;;;;;;;31.90;19.27;;;;;;;;;;4984561;28;20046;-67
2024/01/07 03:11:05;;;;;;;27.52;17.95;;;;;;;;;;4984967;28;20408;-67
2024/01/07 03:13:33;;;;;;;30.33;16.88;;;;;;;;;;4983315;28;20049;-67
2024/01/07 03:16:01;;;;;;;25.30;16.95;;;;;;;;;;4986788;28;20137;-67
2024/01/07 03:18:29;;;;;;;27.00;16.60;;;;;;;;;;4987630;28;20110;-67
2024/01/07 03:20:57;;;;;;;26.17;16.05;;;;;;;;;;4966808;28;20389;-67
2024/01/07 03:23:25;;;;;;;25.25;17.05;;;;;;;;;;4983642;28;20080;-66
2024/01/07 03:25:53;;;;;;;25.00;16.42;;;;;;;;;;4975893;28;20111;-67
2024/01/07 03:28:20;;;;;;;28.45;17.40;;;;;;;;;;4976810;28;20441;-66
2024/01/07 03:30:48;;;;;;;28.92;16.55;;;;;;;;;;4977014;28;20041;-67
2024/01/07 03:33:15;;;;;;;25.83;17.20;;;;;;;;;;4976401;28;20043;-67
2024/01/07 03:35:43;;;;;;;23.98;16.55;;;;;;;;;;4980849;28;20066;-67
2024/01/07 03:38:11;;;;;;;27.80;16.77;;;;;;;;;;4983966;28;20038;-66
2024/01/07 03:40:38;;;;;;;25.10;16.10;;;;;;;;;;4965915;28;20061;-67
2024/01/07 03:43:06;;;;;;;26.35;14.77;;;;;;;;;;4974814;28;20031;-67
2024/01/07 03:45:33;;;;;;;23.02;13.77;;;;;;;;;;4982330;28;20125;-67
2024/01/07 03:48:01;;;;;;;20.10;13.20;;;;;;;;;;4983237;28;20555;-67
2024/01/07 03:50:28;;;;;;;20.25;12.85;;;;;;;;;;4987697;28;20038;-66
2024/01/07 03:52:56;;;;;;;22.13;13.13;;;;;;;;;;4979663;28;20098;-66
2024/01/07 03:55:23;;;;;;;24.15;13.40;;;;;;;;;;4984647;28;20062;-66
2024/01/07 03:57:51;;;;;;;20.90;13.90;;;;;;;;;;4975689;28;20499;-66
2024/01/07 04:00:19;;;;;;;18.60;13.00;;;;;;;;;;4975397;28;20117;-67
2024/01/07 04:02:46;;;;;;;20.52;12.32;;;;;;;;;;4980157;28;20085;-67
2024/01/07 04:05:14;;;;;;;21.67;12.90;;;;;;;;;;4984600;28;20408;-66
2024/01/07 04:07:42;;;;;;;19.92;12.00;;;;;;;;;;4981812;28;20485;-66
2024/01/07 04:10:10;;;;;;;19.08;12.63;;;;;;;;;;4987232;28;20496;-66
2024/01/07 04:12:37;;;;;;;15.77;11.40;;;;;;;;;;4976362;28;20374;-66
2024/01/07 04:15:05;;;;;;;17.83;11.40;;;;;;;;;;4962113;28;20038;-66
2024/01/07 04:17:33;;;;;;;18.10;10.85;;;;;;;;;;4974003;28;20531;-67
2024/01/07 04:20:01;;;;;;;16.85;10.45;;;;;;;;;;4983727;28;20053;-67
2024/01/07 04:22:28;;;;;;;17.13;10.98;;;;;;;;;;4976067;28;20497;-66
2024/01/07 04:24:56;;;;;;;14.82;9.52;;;;;;;;;;4975984;28;20057;-66
2024/01/07 04:27:24;;;;;;;15.55;10.15;;;;;;;;;;4977173;28;20049;-66
2024/01/07 04:29:52;;;;;;;16.88;9.45;;;;;;;;;;4986441;28;20142;-66
2024/01/07 04:32:20;;;;;;;14.60;9.18;;;;;;;;;;4975772;28;20175;-66
2024/01/07 04:34:47;;;;;;;13.80;8.90;;;;;;;;;;4975656;28;20117;-66
2024/01/07 04:37:15;;;;;;;13.75;9.60;;;;;;;;;;4975969;28;20456;-66
2024/01/07 04:39:42;;;;;;;15.85;8.93;;;;;;;;;;4985854;28;20046;-66
2024/01/07 04:42:10;;;;;;;12.90;8.30;;;;;;;;;;4986494;28;20039;-66
2024/01/07 04:44:40;;;;;;;12.68;6.30;;;;;;;;;;4985689;28;21488;-66
2024/01/07 04:47:26;;;;;;;13.98;5.32;;;;;;;;;;4982995;28;20038;-66
2024/01/07 04:49:54;;;;;;;6.88;4.95;;;;;;;;;;4985279;28;20125;-66
2024/01/07 04:52:22;;;;;;;10.73;5.22;;;;;;;;;;4981311;28;20152;-66
2024/01/07 04:54:54;;;;;;;9.68;4.40;;;;;;;;;;4966530;28;20065;-66
2024/01/07 04:57:22;;;;;;;8.20;4.20;;;;;;;;;;4979957;28;20571;-66
2024/01/07 04:59:50;;;;;;;5.95;3.80;;;;;;;;;;4986428;28;20042;-66
2024/01/07 05:02:18;;;;;;;7.03;4.18;;;;;;;;;;4975536;28;20038;-66
2024/01/07 05:04:45;;;;;;;8.82;4.55;;;;;;;;;;4985093;28;20041;-66
2024/01/07 05:07:13;;;;;;;7.53;4.43;;;;;;;;;;4983820;28;20116;-66
2024/01/07 05:09:40;;;;;;;7.40;4.55;;;;;;;;;;4978800;28;20043;-66
2024/01/07 05:12:08;;;;;;;7.60;4.47;;;;;;;;;;4985790;28;20046;-66
2024/01/07 05:14:37;;;;;;;6.80;4.63;;;;;;;;;;4983724;28;20436;-66
2024/01/07 05:17:05;;;;;;;10.63;4.50;;;;;;;;;;4985469;28;20493;-66
2024/01/07 05:19:32;;;;;;;7.30;4.32;;;;;;;;;;4981026;28;20121;-66
2024/01/07 05:22:00;;;;;;;7.47;4.35;;;;;;;;;;4981339;28;20098;-66
2024/01/07 05:24:28;;;;;;;10.38;4.45;;;;;;;;;;4981479;28;20101;-66
2024/01/07 05:26:57;;;;;;;5.53;3.70;;;;;;;;;;4985969;28;20065;-66
2024/01/07 05:29:25;;;;;;;6.22;3.38;;;;;;;;;;4985872;28;20042;-66
2024/01/07 05:31:52;;;;;;;5.32;2.65;;;;;;;;;;4963245;28;20038;-66
2024/01/07 05:34:20;;;;;;;4.68;2.67;;;;;;;;;;4985381;28;20089;-66
2024/01/07 05:36:48;;;;;;;5.10;2.50;;;;;;;;;;4981347;28;20046;-66
2024/01/07 05:39:15;;;;;;;6.25;2.80;;;;;;;;;;4985778;28;20112;-66
2024/01/07 05:41:43;;;;;;;6.03;2.60;;;;;;;;;;4961569;28;20685;-66
2024/01/07 05:44:10;;;;;;;6.13;3.13;;;;;;;;;;4981559;28;20049;-66
2024/01/07 05:46:41;;;;;;;4.75;2.85;;;;;;;;;;4973814;28;20042;-66
2024/01/07 05:49:09;;;;;;;4.28;2.65;;;;;;;;;;4981161;28;20070;-66
2024/01/07 05:51:40;;;;;;;4.78;2.60;;;;;;;;;;4982136;28;20030;-66
2024/01/07 05:54:08;;;;;;;7.50;3.20;;;;;;;;;;4983047;28;20043;-66
2024/01/07 05:56:42;;;;;;;6.57;3.35;;;;;;;;;;4974260;28;20054;-65
2024/01/07 05:59:10;;;;;;;8.93;4.80;;;;;;;;;;4973290;28;20062;-66
2024/01/07 06:01:37;;;;;;;6.45;3.47;;;;;;;;;;4978323;28;20051;-65
2024/01/07 06:04:05;;;;;;;7.03;3.78;;;;;;;;;;4982411;28;20043;-65
2024/01/07 06:06:33;;;;;;;6.18;3.78;;;;;;;;;;4972612;28;20042;-65
2024/01/07 06:09:02;;;;;;;8.13;4.30;;;;;;;;;;4962130;28;20054;-64
2024/01/07 06:11:29;;;;;;;6.45;4.30;;;;;;;;;;4972069;28;20045;-64
2024/01/07 06:13:57;;;;;;;6.18;4.47;;;;;;;;;;4982167;28;20128;-64
2024/01/07 06:16:25;;;;;;;7.88;4.65;;;;;;;;;;4983771;28;20051;-65
2024/01/07 06:18:52;;;;;;;9.13;4.70;;;;;;;;;;4981359;28;20038;-65
2024/01/07 06:21:20;;;;;;;8.35;4.95;;;;;;;;;;4962526;28;20121;-65
2024/01/07 06:23:47;;;;;;;9.35;5.40;;;;;;;;;;4982914;28;20043;-65
2024/01/07 06:26:16;;;;;;;9.48;5.95;;;;;;;;;;4982838;28;20047;-65
2024/01/07 06:28:43;;;;;;;10.05;6.35;;;;;;;;;;4979985;28;20136;-65
2024/01/07 06:31:11;;;;;;;10.18;6.03;;;;;;;;;;4964817;28;20039;-65
2024/01/07 06:33:38;;;;;;;8.85;5.68;;;;;;;;;;4981972;28;20046;-65
2024/01/07 06:36:06;;;;;;;13.38;7.05;;;;;;;;;;4979704;28;20046;-65
2024/01/07 06:38:34;;;;;;;13.88;6.88;;;;;;;;;;4981077;28;20136;-65
2024/01/07 06:41:04;;;;;;;14.98;7.93;;;;;;;;;;4980760;28;20049;-65
2024/01/07 06:43:32;;;;;;;13.02;7.45;;;;;;;;;;4963075;28;20047;-65
2024/01/07 06:45:59;;;;;;;13.82;6.72;;;;;;;;;;4979523;28;20877;-65
2024/01/07 06:48:27;;;;;;;11.77;6.82;;;;;;;;;;4982535;28;20046;-64
2024/01/07 06:50:55;;;;;;;13.43;7.82;;;;;;;;;;4981252;28;20050;-64
2024/01/07 06:53:22;;;;;;;11.35;7.72;;;;;;;;;;4980246;28;20443;-64
2024/01/07 06:55:50;;;;;;;15.02;8.35;;;;;;;;;;4979309;28;20046;-64
2024/01/07 06:58:18;;;;;;;12.70;9.38;;;;;;;;;;4964894;28;20039;-64
2024/01/07 07:00:46;;;;;;;16.83;11.43;;;;;;;;;;4971504;28;20051;-65
2024/01/07 07:03:14;;;;;;;20.67;11.35;;;;;;;;;;4979394;28;20488;-65
2024/01/07 07:05:41;;;;;;;21.77;13.15;;;;;;;;;;4979631;28;20042;-65
2024/01/07 07:08:09;;;;;;;26.80;15.85;;;;;;;;;;4978061;28;20123;-66
2024/01/07 07:10:36;;;;;;;27.40;16.25;;;;;;;;;;4972861;28;20060;-66
2024/01/07 07:13:04;;;;;;;25.73;16.52;;;;;;;;;;4982767;28;20481;-66
2024/01/07 07:15:32;;;;;;;29.83;18.50;;;;;;;;;;4977326;28;20070;-66
2024/01/07 07:17:59;;;;;;;27.33;16.98;;;;;;;;;;4982289;28;20057;-67
2024/01/07 07:20:27;;;;;;;40.45;16.98;;;;;;;;;;4979839;28;20145;-66
2024/01/07 07:22:54;;;;;;;31.52;20.15;;;;;;;;;;4978103;28;20035;-66
2024/01/07 07:25:22;;;;;;;29.42;20.98;;;;;;;;;;4971499;28;20562;-66
2024/01/07 07:27:49;;;;;;;34.25;19.77;;;;;;;;;;4979124;28;20051;-66
2024/01/07 07:30:17;;;;;;;28.80;18.77;;;;;;;;;;4972887;28;20061;-67
2024/01/07 07:32:45;;;;;;;30.15;21.27;;;;;;;;;;4972800;28;20531;-67
2024/01/07 07:35:12;;;;;;;24.33;17.05;;;;;;;;;;4980603;28;20050;-67
2024/01/07 07:37:40;;;;;;;30.25;17.13;;;;;;;;;;4977997;28;20524;-66
2024/01/07 07:40:07;;;;;;;25.25;17.98;;;;;;;;;;4980281;28;20066;-67
2024/01/07 07:42:35;;;;;;;28.58;17.25;;;;;;;;;;4981542;28;20484;-67
2024/01/07 07:45:03;;;;;;;22.80;13.60;;;;;;;;;;4958671;28;20396;-67
2024/01/07 07:47:30;;;;;;;26.02;14.32;;;;;;;;;;4964318;28;20042;-67
2024/01/07 07:49:58;;;;;;;20.88;14.43;;;;;;;;;;4978125;28;20101;-67
2024/01/07 07:52:26;;;;;;;22.75;14.45;;;;;;;;;;4982207;28;20130;-67
2024/01/07 07:54:54;;;;;;;18.77;11.93;;;;;;;;;;4957231;28;20042;-67
2024/01/07 07:57:24;;;;;;;18.05;12.00;;;;;;;;;;4978525;28;20459;-67
2024/01/07 07:59:53;;;;;;;18.23;11.48;;;;;;;;;;4976841;28;20054;-67
2024/01/07 08:02:20;;;;;;;18.33;11.13;;;;;;;;;;4976335;28;20042;-67
2024/01/07 08:04:48;;;;;;;18.40;9.85;;;;;;;;;;4982938;28;20038;-67
2024/01/07 08:07:16;;;;;;;16.45;9.98;;;;;;;;;;4981648;28;20106;-67
2024/01/07 08:09:43;;;;;;;14.40;8.88;;;;;;;;;;4974790;28;20503;-67
2024/01/07 08:12:11;;;;;;;15.70;9.30;;;;;;;;;;4991425;28;20048;-67
2024/01/07 08:14:42;;;;;;;14.73;11.93;;;;;;;;;;4993949;28;20412;-67
2024/01/07 08:17:10;;;;;;;14.07;9.15;;;;;;;;;;4983126;28;20065;-66
2024/01/07 08:19:37;;;;;;;15.10;9.63;;;;;;;;;;4982569;28;20043;-67
2024/01/07 08:22:05;;;;;;;13.90;9.43;;;;;;;;;;4982135;28;20041;-66
2024/01/07 08:24:33;;;;;;;13.65;8.50;;;;;;;;;;4981672;28;20075;-66
2024/01/07 08:27:00;;;;;;;14.77;10.10;;;;;;;;;;4989038;28;20042;-66
2024/01/07 08:29:28;;;;;;;16.63;10.25;;;;;;;;;;4986526;28;20501;-66
2024/01/07 08:31:55;;;;;;;15.00;10.07;;;;;;;;;;4983393;28;20038;-66
2024/01/07 08:34:23;;;;;;;18.45;10.95;;;;;;;;;;4982642;28;20043;-66
2024/01/07 08:36:51;;;;;;;18.40;10.73;;;;;;;;;;4981781;28;20129;-66
2024/01/07 08:39:18;;;;;;;16.70;10.57;;;;;;;;;;4990579;28;20078;-67
2024/01/07 08:41:46;;;;;;;17.55;10.32;;;;;;;;;;4990433;28;20041;-67
2024/01/07 08:44:14;;;;;;;20.55;10.95;;;;;;;;;;4988200;28;20137;-66
2024/01/07 08:46:41;;;;;;;16.90;11.50;;;;;;;;;;4981736;28;20141;-68
2024/01/07 08:49:09;;;;;;;18.25;11.05;;;;;;;;;;4981296;28;20031;-67
2024/01/07 08:51:37;;;;;;;16.75;10.20;;;;;;;;;;4983375;28;20051;-67
2024/01/07 08:54:05;;;;;;;15.73;10.02;;;;;;;;;;4969163;28;20045;-62
2024/01/07 08:56:32;;;;;;;14.93;9.38;;;;;;;;;;4974386;28;20047;-62
2024/01/07 08:59:00;;;;;;;12.30;8.07;;;;;;;;;;4980250;28;20041;-63
2024/01/07 09:01:28;;;;;;;12.07;6.53;;;;;;;;;;4982382;28;20038;-63
2024/01/07 09:03:55;;;;;;;11.63;7.55;;;;;;;;;;4984627;28;20039;-63
2024/01/07 09:06:23;;;;;;;10.40;7.05;;;;;;;;;;4973249;28;20039;-63
2024/01/07 09:08:51;;;;;;;13.35;6.78;;;;;;;;;;4983516;28;20098;-63
2024/01/07 09:11:21;;;;;;;10.20;5.85;;;;;;;;;;4978338;28;20047;-61
2024/01/07 09:13:50;;;;;;;8.68;6.07;;;;;;;;;;5003056;28;20097;-66
2024/01/07 09:16:17;;;;;;;10.85;7.32;;;;;;;;;;5003031;28;21586;-66
2024/01/07 09:18:45;;;;;;;12.60;8.38;;;;;;;;;;4960641;28;20034;-67
2024/01/07 09:21:14;;;;;;;8.98;5.47;;;;;;;;;;4976484;28;20100;-66
2024/01/07 09:23:41;;;;;;;11.65;6.25;;;;;;;;;;4970990;28;20051;-66
2024/01/07 09:26:09;;;;;;;22.08;16.23;;;;;;;;;;4971159;28;20046;-67
2024/01/07 09:28:37;;;;;;;30.15;22.40;;;;;;;;;;4982636;28;20050;-67
2024/01/07 09:31:05;;;;;;;31.70;22.38;;;;;;;;;;4987530;28;20046;-67
2024/01/07 09:33:33;;;;;;;32.05;23.42;;;;;;;;;;4981706;28;20057;-67
2024/01/07 09:36:01;;;;;;;38.38;26.05;;;;;;;;;;4965372;28;20046;-68
2024/01/07 09:38:41;;;;;;;35.25;25.15;;;;;;;;;;4965753;28;20030;-67
2024/01/07 09:41:09;;;;;;;41.25;27.45;;;;;;;;;;4945759;28;20054;-67
2024/01/07 09:43:37;;;;;;;36.80;26.33;;;;;;;;;;4947452;28;20038;-67
2024/01/07 09:46:05;;;;;;;41.35;28.75;;;;;;;;;;4965393;28;20054;-67
2024/01/07 09:48:32;;;;;;;48.35;30.02;;;;;;;;;;4965500;28;20050;-68
2024/01/07 09:51:01;;;;;;;43.40;30.48;;;;;;;;;;4973277;28;20806;-68
2024/01/07 09:53:32;;;;;;;44.53;30.92;;;;;;;;;;4977681;28;20057;-67
2024/01/07 09:56:13;;;;;;;45.08;30.30;;;;;;;;;;4987727;28;20659;-66
2024/01/07 09:58:49;;;;;;;43.28;29.90;;;;;;;;;;4983277;28;20038;-68
2024/01/07 10:01:20;;;;;;;46.00;31.02;;;;;;;;;;4969441;28;20046;-67
2024/01/07 10:03:48;;;;;;;46.47;31.92;;;;;;;;;;4964300;28;20038;-67
2024/01/07 10:06:19;;;;;;;49.20;32.50;;;;;;;;;;4969118;28;20045;-68
2024/01/07 10:08:47;;;;;;;42.15;29.20;;;;;;;;;;4951448;28;20039;-68
2024/01/07 10:11:15;;;;;;;37.10;26.02;;;;;;;;;;4951360;28;20531;-68
2024/01/07 10:13:47;;;;;;;37.63;26.63;;;;;;;;;;4969287;28;20137;-66
2024/01/07 10:16:15;;;;;;;36.95;26.60;;;;;;;;;;4952144;28;20055;-68
2024/01/07 10:18:43;;;;;;;40.72;27.83;;;;;;;;;;4951316;28;20046;-67
2024/01/07 10:21:11;;;;;;;54.25;38.40;;;;;;;;;;4965481;28;20049;-69
2024/01/07 10:23:39;;;;;;;57.40;38.85;;;;;;;;;;4968861;28;20130;-68
2024/01/07 10:26:06;;;;;;;50.55;36.72;;;;;;;;;;4975824;28;20053;-69
2024/01/07 10:28:49;;;;;;;38.88;26.83;;;;;;;;;;4966179;28;20101;-69
2024/01/07 10:31:20;;;;;;;39.85;26.35;;;;;;;;;;4969804;28;20567;-69
2024/01/07 10:33:49;;;;;;;40.78;29.67;;;;;;;;;;4987621;28;20693;-70
2024/01/07 10:36:17;;;;;;;41.05;28.25;;;;;;;;;;4987469;28;20145;-70
2024/01/07 10:38:45;;;;;;;40.75;28.60;;;;;;;;;;4987172;28;20045;-70
2024/01/07 10:41:15;;;;;;;38.80;26.50;;;;;;;;;;4989512;28;20051;-70
2024/01/07 10:43:43;;;;;;;38.10;26.98;;;;;;;;;;4967283;28;20099;-67
2024/01/07 10:46:11;;;;;;;42.22;28.15;;;;;;;;;;4981036;28;20034;-68
2024/01/07 10:48:43;;;;;;;42.30;28.38;;;;;;;;;;4950725;28;20042;-68
2024/01/07 10:51:12;;;;;;;39.60;28.85;;;;;;;;;;4967994;28;20166;-68
2024/01/07 10:53:43;;;;;;;41.53;29.15;;;;;;;;;;4967931;28;20038;-67
2024/01/07 10:56:12;;;;;;;33.38;24.27;;;;;;;;;;4982544;28;20065;-67
2024/01/07 10:58:40;;;;;;;37.63;25.95;;;;;;;;;;4967958;28;20034;-67
2024/01/07 11:01:08;;;;;;;36.53;25.38;;;;;;;;;;4968116;28;20047;-66
2024/01/07 11:03:55;;;;;;;39.28;27.05;;;;;;;;;;4967940;28;20062;-67
2024/01/07 11:06:28;;;;;;;35.38;25.35;;;;;;;;;;4967618;28;20117;-67
2024/01/07 11:09:03;;;;;;;36.90;26.83;;;;;;;;;;4950854;28;20500;-67
2024/01/07 11:11:37;;;;;;;37.58;24.27;;;;;;;;;;4968314;28;20063;-67
2024/01/07 11:14:05;;;;;;;31.65;23.27;;;;;;;;;;4967951;28;20085;-66
2024/01/07 11:16:43;;;;;;;31.42;22.20;;;;;;;;;;4967645;28;20094;-66
2024/01/07 11:19:14;;;;;;;34.53;23.33;;;;;;;;;;4967333;28;20054;-66
2024/01/07 11:21:42;;;;;;;34.67;23.35;;;;;;;;;;4967915;28;20043;-66
2024/01/07 11:24:10;;;;;;;33.35;23.00;;;;;;;;;;4967718;28;20575;-66
2024/01/07 11:26:38;;;;;;;31.20;21.73;;;;;;;;;;4967674;28;20074;-66
2024/01/07 11:29:09;;;;;;;26.45;20.08;;;;;;;;;;4965048;28;20043;-66
2024/01/07 11:31:39;;;;;;;24.45;18.50;;;;;;;;;;4971745;28;20493;-66
2024/01/07 11:34:08;;;;;;;26.25;19.00;;;;;;;;;;4986529;28;20075;-67
2024/01/07 11:36:36;;;;;;;28.23;19.25;;;;;;;;;;4974589;28;20047;-66
2024/01/07 11:39:08;;;;;;;26.27;18.92;;;;;;;;;;4971168;28;20035;-67
2024/01/07 11:41:38;;;;;;;22.95;16.80;;;;;;;;;;4985582;28;20042;-67
2024/01/07 11:44:05;;;;;;;22.77;17.13;;;;;;;;;;4969920;28;20046;-67
2024/01/07 11:46:34;;;;;;;21.55;15.82;;;;;;;;;;4974992;28;20445;-67
2024/01/07 11:49:02;;;;;;;20.60;13.65;;;;;;;;;;4978414;28;20413;-67
2024/01/07 11:51:31;;;;;;;19.10;13.20;;;;;;;;;;4972948;28;20486;-67
2024/01/07 11:54:00;;;;;;;20.67;14.27;;;;;;;;;;4972505;28;20051;-67
2024/01/07 11:56:29;;;;;;;16.20;11.65;;;;;;;;;;4972052;28;20732;-67
2024/01/07 11:58:57;;;;;;;16.92;11.63;;;;;;;;;;4990497;28;20035;-67
2024/01/07 12:01:28;;;;;;;15.68;11.05;;;;;;;;;;4990297;28;20520;-67
2024/01/07 12:03:56;;;;;;;16.50;10.50;;;;;;;;;;4990296;28;20480;-67
2024/01/07 12:06:24;;;;;;;12.05;9.25;;;;;;;;;;4989966;28;20515;-66
2024/01/07 12:08:52;;;;;;;16.08;11.65;;;;;;;;;;4989655;28;20050;-66
2024/01/07 12:11:20;;;;;;;21.10;14.65;;;;;;;;;;4974072;28;20461;-66
2024/01/07 12:13:50;;;;;;;21.48;17.70;;;;;;;;;;4984752;28;20034;-67
2024/01/07 12:16:18;;;;;;;25.52;18.08;;;;;;;;;;4974970;28;20182;-67
2024/01/07 12:18:46;;;;;;;24.85;16.63;;;;;;;;;;4955954;28;20047;-66
2024/01/07 12:21:21;;;;;;;26.35;17.52;;;;;;;;;;4956168;28;20047;-66
2024/01/07 12:23:50;;;;;;;23.35;16.52;;;;;;;;;;4977144;28;20572;-67
2024/01/07 12:26:19;;;;;;;19.77;14.70;;;;;;;;;;4983912;28;20051;-66
2024/01/07 12:28:52;;;;;;;21.60;15.43;;;;;;;;;;4972265;28;20042;-67
2024/01/07 12:31:20;;;;;;;19.58;14.73;;;;;;;;;;4989743;28;20097;-66
2024/01/07 12:33:48;;;;;;;19.65;14.05;;;;;;;;;;4989939;28;20031;-66
2024/01/07 12:36:16;;;;;;;15.93;10.93;;;;;;;;;;4989953;28;20108;-67
2024/01/07 12:38:44;;;;;;;13.77;10.02;;;;;;;;;;4989744;28;20042;-67
2024/01/07 12:41:11;;;;;;;15.27;11.38;;;;;;;;;;4956749;28;20047;-66
2024/01/07 12:43:39;;;;;;;14.95;11.07;;;;;;;;;;4988713;28;20126;-66
2024/01/07 12:46:07;;;;;;;13.80;10.82;;;;;;;;;;4972429;28;20068;-66
2024/01/07 12:48:34;;;;;;;18.13;12.18;;;;;;;;;;4989357;28;20038;-66
2024/01/07 12:51:02;;;;;;;17.77;13.45;;;;;;;;;;4989598;28;20057;-67
2024/01/07 12:53:30;;;;;;;20.63;15.13;;;;;;;;;;4989555;28;20122;-66
2024/01/07 12:55:57;;;;;;;22.40;16.33;;;;;;;;;;4989198;28;20129;-66
2024/01/07 12:58:25;;;;;;;21.77;17.17;;;;;;;;;;4989580;28;20050;-66
2024/01/07 13:00:53;;;;;;;25.75;18.90;;;;;;;;;;4989422;28;20034;-66
2024/01/07 13:03:21;;;;;;;24.92;18.30;;;;;;;;;;4989594;28;20058;-67
2024/01/07 13:05:49;;;;;;;23.20;18.05;;;;;;;;;;4971816;28;20474;-67
2024/01/07 13:08:26;;;;;;;24.38;18.33;;;;;;;;;;4989432;28;20284;-66
2024/01/07 13:10:55;;;;;;;25.38;18.70;;;;;;;;;;4985881;28;20049;-67
2024/01/07 13:13:23;;;;;;;26.20;19.35;;;;;;;;;;4982348;28;20058;-67
2024/01/07 13:15:50;;;;;;;28.88;20.35;;;;;;;;;;4983160;28;20038;-67
2024/01/07 13:18:18;;;;;;;27.02;19.70;;;;;;;;;;4969101;28;20086;-67
2024/01/07 13:20:47;;;;;;;24.98;18.40;;;;;;;;;;4952528;28;20096;-67
2024/01/07 13:23:14;;;;;;;28.40;20.20;;;;;;;;;;4969059;28;20332;-67
2024/01/07 13:25:42;;;;;;;27.98;20.83;;;;;;;;;;4969668;28;20039;-67
2024/01/07 13:28:10;;;;;;;27.42;20.50;;;;;;;;;;4970341;28;20049;-67
2024/01/07 13:30:40;;;;;;;31.02;21.67;;;;;;;;;;4971348;28;20050;-67
2024/01/07 13:33:08;;;;;;;31.17;22.80;;;;;;;;;;4971921;28;20042;-67
2024/01/07 13:35:36;;;;;;;29.30;21.05;;;;;;;;;;4976255;28;20065;-66
2024/01/07 13:38:03;;;;;;;27.25;20.52;;;;;;;;;;4981072;28;20368;-67
2024/01/07 13:40:31;;;;;;;26.33;19.83;;;;;;;;;;4968974;28;20118;-68
2024/01/07 13:42:58;;;;;;;26.80;19.80;;;;;;;;;;4963406;28;20049;-66
2024/01/07 13:45:26;;;;;;;24.88;19.08;;;;;;;;;;4975446;28;20053;-67
2024/01/07 13:47:54;;;;;;;27.15;19.77;;;;;;;;;;4976562;28;20041;-67
2024/01/07 13:50:21;;;;;;;25.83;18.30;;;;;;;;;;4968969;28;20097;-67
2024/01/07 13:52:50;;;;;;;29.05;19.83;;;;;;;;;;4971063;28;20508;-68
2024/01/07 13:55:18;;;;;;;35.50;22.50;;;;;;;;;;4968999;28;20129;-68
2024/01/07 13:57:45;;;;;;;33.35;23.98;;;;;;;;;;4973415;28;20125;-68
2024/01/07 14:00:18;;;;;;;30.23;22.58;;;;;;;;;;4970618;28;20050;-69
2024/01/07 14:02:46;;;;;;;35.10;23.00;;;;;;;;;;4974130;28;20051;-68
2024/01/07 14:05:14;;;;;;;32.20;22.88;;;;;;;;;;4971399;28;20038;-69
2024/01/07 14:07:42;;;;;;;33.80;24.10;;;;;;;;;;4967550;28;20030;-69
2024/01/07 14:10:10;;;;;;;40.55;28.50;;;;;;;;;;4972188;28;20047;-68
2024/01/07 14:12:37;;;;;;;33.92;25.67;;;;;;;;;;4971934;28;20089;-69
2024/01/07 14:15:06;;;;;;;34.40;24.67;;;;;;;;;;4960111;28;20046;-69
2024/01/07 14:17:33;;;;;;;33.90;23.75;;;;;;;;;;4970654;28;20114;-69
2024/01/07 14:20:01;;;;;;;36.72;24.63;;;;;;;;;;4970677;28;20035;-68
2024/01/07 14:22:30;;;;;;;29.33;21.38;;;;;;;;;;4967661;28;20412;-68
2024/01/07 14:24:58;;;;;;;47.78;30.90;;;;;;;;;;4969807;28;22025;-68
2024/01/07 14:27:27;;;;;;;42.03;29.50;;;;;;;;;;4973685;28;20050;-69